sensor_id;sensor_type;location;lat;lon;timestamp;pressure;altitude;pressure_sealevel;temperature;humidity
45050;BME280;61798;48.048;-1.928;2023-08-24T00:01:36;100586.81;;;20.10;100.00
45050;BME280;61798;48.048;-1.928;2023-08-24T00:03:47;100586.66;;;19.94;100.00
45050;BME280;61798;48.048;-1.928;2023-08-24T00:05:55;100595.13;;;19.98;100.00
45050;BME280;61798;48.048;-1.928;2023-08-24T00:08:04;100581.31;;;20.05;100.00
45050;BME280;61798;48.048;-1.928;2023-08-24T00:10:11;100573.75;;;20.45;100.00
45050;BME280;61798;48.048;-1.928;2023-08-24T00:12:19;100555.84;;;20.55;100.00
45050;BME280;61798;48.048;-1.928;2023-08-24T00:14:26;100569.44;;;20.55;100.00
45050;BME280;61798;48.048;-1.928;2023-08-24T00:16:33;100558.25;;;20.46;100.00
45050;BME280;61798;48.048;-1.928;2023-08-24T00:18:41;100559.94;;;20.19;100.00
45050;BME280;61798;48.048;-1.928;2023-08-24T00:20:49;100579.75;;;20.14;100.00
45050;BME280;61798;48.048;-1.928;2023-08-24T00:22:56;100563.78;;;20.18;100.00
45050;BME280;61798;48.048;-1.928;2023-08-24T00:25:04;100572.84;;;20.01;100.00
45050;BME280;61798;48.048;-1.928;2023-08-24T00:27:12;100548.19;;;20.13;100.00
45050;BME280;61798;48.048;-1.928;2023-08-24T00:29:21;100549.47;;;20.38;100.00
45050;BME280;61798;48.048;-1.928;2023-08-24T00:31:29;100557.28;;;20.68;100.00
45050;BME280;61798;48.048;-1.928;2023-08-24T00:33:38;100530.50;;;20.54;100.00
45050;BME280;61798;48.048;-1.928;2023-08-24T00:35:48;100549.03;;;20.52;100.00
45050;BME280;61798;48.048;-1.928;2023-08-24T00:37:56;100543.19;;;20.33;100.00
45050;BME280;61798;48.048;-1.928;2023-08-24T00:40:04;100546.09;;;20.64;100.00
45050;BME280;61798;48.048;-1.928;2023-08-24T00:42:17;100531.59;;;20.15;100.00
45050;BME280;61798;48.048;-1.928;2023-08-24T00:44:24;100545.13;;;20.43;100.00
45050;BME280;61798;48.048;-1.928;2023-08-24T00:46:30;100537.63;;;20.60;100.00
45050;BME280;61798;48.048;-1.928;2023-08-24T00:48:37;100522.91;;;20.56;100.00
45050;BME280;61798;48.048;-1.928;2023-08-24T00:50:44;100535.25;;;20.26;100.00
45050;BME280;61798;48.048;-1.928;2023-08-24T00:52:50;100535.84;;;20.33;100.00
45050;BME280;61798;48.048;-1.928;2023-08-24T00:54:59;100506.22;;;20.04;100.00
45050;BME280;61798;48.048;-1.928;2023-08-24T00:57:07;100515.91;;;19.89;100.00
45050;BME280;61798;48.048;-1.928;2023-08-24T00:59:14;100516.25;;;19.65;100.00
45050;BME280;61798;48.048;-1.928;2023-08-24T01:01:22;100529.69;;;20.15;100.00
45050;BME280;61798;48.048;-1.928;2023-08-24T01:03:29;100523.00;;;19.90;100.00
45050;BME280;61798;48.048;-1.928;2023-08-24T01:05:36;100528.59;;;19.78;100.00
45050;BME280;61798;48.048;-1.928;2023-08-24T01:07:44;100519.03;;;19.70;100.00
45050;BME280;61798;48.048;-1.928;2023-08-24T01:09:52;100515.44;;;19.64;100.00
45050;BME280;61798;48.048;-1.928;2023-08-24T01:16:58;100532.47;;;19.54;100.00
45050;BME280;61798;48.048;-1.928;2023-08-24T01:19:06;100537.47;;;19.68;100.00
45050;BME280;61798;48.048;-1.928;2023-08-24T01:21:18;100537.22;;;19.70;100.00
45050;BME280;61798;48.048;-1.928;2023-08-24T01:23:45;100530.59;;;19.60;100.00
45050;BME280;61798;48.048;-1.928;2023-08-24T01:26:18;100535.97;;;19.55;100.00
45050;BME280;61798;48.048;-1.928;2023-08-24T01:28:25;100522.31;;;19.44;100.00
45050;BME280;61798;48.048;-1.928;2023-08-24T01:30:34;100528.78;;;19.38;100.00
45050;BME280;61798;48.048;-1.928;2023-08-24T01:32:42;100526.59;;;19.40;100.00
45050;BME280;61798;48.048;-1.928;2023-08-24T01:34:50;100532.63;;;19.42;100.00
45050;BME280;61798;48.048;-1.928;2023-08-24T01:36:57;100524.97;;;19.39;100.00
45050;BME280;61798;48.048;-1.928;2023-08-24T01:41:23;100532.63;;;19.70;100.00
45050;BME280;61798;48.048;-1.928;2023-08-24T01:43:32;100507.44;;;19.52;100.00
45050;BME280;61798;48.048;-1.928;2023-08-24T01:45:44;100514.31;;;19.60;100.00
45050;BME280;61798;48.048;-1.928;2023-08-24T01:47:52;100505.03;;;19.56;100.00
45050;BME280;61798;48.048;-1.928;2023-08-24T01:50:01;100503.78;;;19.69;100.00
45050;BME280;61798;48.048;-1.928;2023-08-24T01:52:10;100498.72;;;19.50;100.00
45050;BME280;61798;48.048;-1.928;2023-08-24T01:54:18;100488.63;;;19.46;100.00
45050;BME280;61798;48.048;-1.928;2023-08-24T01:56:26;100509.16;;;19.64;100.00
45050;BME280;61798;48.048;-1.928;2023-08-24T01:58:33;100497.59;;;19.46;100.00
45050;BME280;61798;48.048;-1.928;2023-08-24T02:00:40;100499.84;;;19.54;100.00
45050;BME280;61798;48.048;-1.928;2023-08-24T02:02:47;100484.47;;;19.38;100.00
45050;BME280;61798;48.048;-1.928;2023-08-24T02:04:54;100500.00;;;19.70;100.00
45050;BME280;61798;48.048;-1.928;2023-08-24T02:07:00;100503.22;;;19.67;100.00
45050;BME280;61798;48.048;-1.928;2023-08-24T02:09:07;100501.78;;;19.59;100.00
45050;BME280;61798;48.048;-1.928;2023-08-24T02:11:14;100487.84;;;19.50;100.00
45050;BME280;61798;48.048;-1.928;2023-08-24T02:13:25;100503.53;;;19.43;100.00
45050;BME280;61798;48.048;-1.928;2023-08-24T02:15:31;100506.91;;;19.55;100.00
45050;BME280;61798;48.048;-1.928;2023-08-24T02:17:39;100511.59;;;19.60;100.00
45050;BME280;61798;48.048;-1.928;2023-08-24T02:19:46;100514.41;;;19.43;100.00
45050;BME280;61798;48.048;-1.928;2023-08-24T02:21:53;100518.53;;;19.79;100.00
45050;BME280;61798;48.048;-1.928;2023-08-24T02:24:00;100517.47;;;19.80;100.00
45050;BME280;61798;48.048;-1.928;2023-08-24T02:26:09;100533.09;;;19.62;100.00
45050;BME280;61798;48.048;-1.928;2023-08-24T02:28:17;100542.19;;;19.78;100.00
45050;BME280;61798;48.048;-1.928;2023-08-24T02:30:24;100528.13;;;19.59;100.00
45050;BME280;61798;48.048;-1.928;2023-08-24T02:32:33;100514.81;;;19.57;100.00
45050;BME280;61798;48.048;-1.928;2023-08-24T02:34:41;100526.06;;;19.71;100.00
45050;BME280;61798;48.048;-1.928;2023-08-24T02:36:48;100515.72;;;19.68;100.00
45050;BME280;61798;48.048;-1.928;2023-08-24T02:38:55;100529.91;;;19.70;100.00
45050;BME280;61798;48.048;-1.928;2023-08-24T02:41:04;100519.44;;;19.57;100.00
45050;BME280;61798;48.048;-1.928;2023-08-24T02:43:11;100527.88;;;19.60;100.00
45050;BME280;61798;48.048;-1.928;2023-08-24T02:45:19;100535.34;;;19.70;100.00
45050;BME280;61798;48.048;-1.928;2023-08-24T02:47:26;100550.53;;;19.71;100.00
45050;BME280;61798;48.048;-1.928;2023-08-24T02:49:34;100537.78;;;19.72;100.00
45050;BME280;61798;48.048;-1.928;2023-08-24T02:51:40;100537.94;;;19.60;100.00
45050;BME280;61798;48.048;-1.928;2023-08-24T02:53:47;100557.53;;;19.90;100.00
45050;BME280;61798;48.048;-1.928;2023-08-24T02:55:58;100537.66;;;19.89;100.00
45050;BME280;61798;48.048;-1.928;2023-08-24T02:58:04;100557.63;;;19.44;100.00
45050;BME280;61798;48.048;-1.928;2023-08-24T03:00:12;100568.56;;;19.78;100.00
45050;BME280;61798;48.048;-1.928;2023-08-24T03:02:20;100609.59;;;19.76;100.00
45050;BME280;61798;48.048;-1.928;2023-08-24T03:04:27;100635.59;;;19.67;100.00
45050;BME280;61798;48.048;-1.928;2023-08-24T03:06:35;100653.56;;;19.45;100.00
45050;BME280;61798;48.048;-1.928;2023-08-24T03:08:42;100605.63;;;19.16;100.00
45050;BME280;61798;48.048;-1.928;2023-08-24T03:10:49;100591.94;;;19.28;100.00
45050;BME280;61798;48.048;-1.928;2023-08-24T03:12:56;100571.72;;;19.19;100.00
45050;BME280;61798;48.048;-1.928;2023-08-24T03:15:04;100553.84;;;19.23;100.00
45050;BME280;61798;48.048;-1.928;2023-08-24T03:17:11;100532.47;;;19.54;100.00
45050;BME280;61798;48.048;-1.928;2023-08-24T03:19:18;100531.69;;;19.59;100.00
45050;BME280;61798;48.048;-1.928;2023-08-24T03:21:25;100522.97;;;19.57;100.00
45050;BME280;61798;48.048;-1.928;2023-08-24T03:23:32;100515.13;;;19.33;100.00
45050;BME280;61798;48.048;-1.928;2023-08-24T03:25:41;100519.44;;;19.57;100.00
45050;BME280;61798;48.048;-1.928;2023-08-24T03:27:49;100512.94;;;19.58;100.00
45050;BME280;61798;48.048;-1.928;2023-08-24T03:29:57;100487.22;;;19.43;100.00
45050;BME280;61798;48.048;-1.928;2023-08-24T03:32:06;100491.88;;;19.42;100.00
45050;BME280;61798;48.048;-1.928;2023-08-24T03:34:12;100498.31;;;19.36;100.00
45050;BME280;61798;48.048;-1.928;2023-08-24T03:36:19;100458.88;;;19.06;100.00
45050;BME280;61798;48.048;-1.928;2023-08-24T03:38:27;100476.75;;;19.01;100.00
45050;BME280;61798;48.048;-1.928;2023-08-24T03:40:35;100473.13;;;18.96;100.00
45050;BME280;61798;48.048;-1.928;2023-08-24T03:42:42;100463.00;;;18.86;100.00
45050;BME280;61798;48.048;-1.928;2023-08-24T03:44:49;100465.13;;;18.84;100.00
45050;BME280;61798;48.048;-1.928;2023-08-24T03:46:56;100425.50;;;18.83;100.00
45050;BME280;61798;48.048;-1.928;2023-08-24T03:49:03;100456.56;;;19.20;100.00
45050;BME280;61798;48.048;-1.928;2023-08-24T03:51:10;100439.84;;;19.06;100.00
45050;BME280;61798;48.048;-1.928;2023-08-24T03:53:17;100450.72;;;19.06;100.00
45050;BME280;61798;48.048;-1.928;2023-08-24T03:55:25;100470.59;;;19.11;100.00
45050;BME280;61798;48.048;-1.928;2023-08-24T03:57:34;100484.88;;;19.24;100.00
45050;BME280;61798;48.048;-1.928;2023-08-24T03:59:42;100462.56;;;18.99;100.00
45050;BME280;61798;48.048;-1.928;2023-08-24T04:01:48;100502.38;;;19.33;100.00
45050;BME280;61798;48.048;-1.928;2023-08-24T04:03:54;100503.59;;;19.48;100.00
45050;BME280;61798;48.048;-1.928;2023-08-24T04:06:01;100508.31;;;19.30;100.00
45050;BME280;61798;48.048;-1.928;2023-08-24T04:08:07;100504.44;;;19.03;100.00
45050;BME280;61798;48.048;-1.928;2023-08-24T04:10:15;100514.25;;;19.27;100.00
45050;BME280;61798;48.048;-1.928;2023-08-24T04:12:22;100512.97;;;19.12;100.00
45050;BME280;61798;48.048;-1.928;2023-08-24T04:14:28;100532.56;;;19.15;100.00
45050;BME280;61798;48.048;-1.928;2023-08-24T04:16:37;100541.34;;;19.22;100.00
45050;BME280;61798;48.048;-1.928;2023-08-24T04:18:45;100524.47;;;19.20;100.00
45050;BME280;61798;48.048;-1.928;2023-08-24T04:20:52;100528.28;;;19.19;100.00
45050;BME280;61798;48.048;-1.928;2023-08-24T04:23:01;100522.66;;;19.26;100.00
45050;BME280;61798;48.048;-1.928;2023-08-24T04:25:08;100504.19;;;19.05;100.00
45050;BME280;61798;48.048;-1.928;2023-08-24T04:27:16;100489.47;;;19.23;100.00
45050;BME280;61798;48.048;-1.928;2023-08-24T04:29:23;100480.69;;;19.16;100.00
45050;BME280;61798;48.048;-1.928;2023-08-24T04:31:31;100457.72;;;19.24;100.00
45050;BME280;61798;48.048;-1.928;2023-08-24T04:33:38;100452.53;;;19.00;100.00
45050;BME280;61798;48.048;-1.928;2023-08-24T04:35:49;100466.25;;;18.88;100.00
45050;BME280;61798;48.048;-1.928;2023-08-24T04:37:56;100462.41;;;19.06;100.00
45050;BME280;61798;48.048;-1.928;2023-08-24T04:40:03;100474.75;;;19.19;100.00
45050;BME280;61798;48.048;-1.928;2023-08-24T04:42:11;100471.72;;;19.16;100.00
45050;BME280;61798;48.048;-1.928;2023-08-24T04:44:19;100450.47;;;18.85;100.00
45050;BME280;61798;48.048;-1.928;2023-08-24T04:46:26;100460.00;;;18.87;100.00
45050;BME280;61798;48.048;-1.928;2023-08-24T04:48:34;100452.50;;;18.72;100.00
45050;BME280;61798;48.048;-1.928;2023-08-24T04:50:46;100456.69;;;18.57;100.00
45050;BME280;61798;48.048;-1.928;2023-08-24T04:52:53;100427.84;;;18.51;100.00
45050;BME280;61798;48.048;-1.928;2023-08-24T04:55:00;100432.81;;;18.59;100.00
45050;BME280;61798;48.048;-1.928;2023-08-24T04:57:08;100408.00;;;18.28;100.00
45050;BME280;61798;48.048;-1.928;2023-08-24T04:59:15;100417.28;;;18.32;100.00
45050;BME280;61798;48.048;-1.928;2023-08-24T05:01:21;100420.81;;;18.33;100.00
45050;BME280;61798;48.048;-1.928;2023-08-24T05:03:29;100408.84;;;18.11;100.00
45050;BME280;61798;48.048;-1.928;2023-08-24T05:05:37;100439.66;;;18.22;100.00
45050;BME280;61798;48.048;-1.928;2023-08-24T05:07:44;100446.66;;;18.58;100.00
45050;BME280;61798;48.048;-1.928;2023-08-24T05:09:50;100448.53;;;18.80;100.00
45050;BME280;61798;48.048;-1.928;2023-08-24T05:11:57;100445.25;;;18.78;100.00
45050;BME280;61798;48.048;-1.928;2023-08-24T05:14:04;100440.94;;;18.59;100.00
45050;BME280;61798;48.048;-1.928;2023-08-24T05:16:12;100448.66;;;18.68;100.00
45050;BME280;61798;48.048;-1.928;2023-08-24T05:18:19;100441.09;;;18.70;100.00
45050;BME280;61798;48.048;-1.928;2023-08-24T05:20:26;100413.47;;;18.51;100.00
45050;BME280;61798;48.048;-1.928;2023-08-24T05:22:32;100420.84;;;18.83;100.00
45050;BME280;61798;48.048;-1.928;2023-08-24T05:24:38;100400.78;;;18.84;100.00
45050;BME280;61798;48.048;-1.928;2023-08-24T05:26:44;100418.94;;;18.78;100.00
45050;BME280;61798;48.048;-1.928;2023-08-24T05:28:52;100417.97;;;18.67;100.00
45050;BME280;61798;48.048;-1.928;2023-08-24T05:30:58;100440.78;;;18.66;100.00
45050;BME280;61798;48.048;-1.928;2023-08-24T05:33:04;100434.50;;;18.43;100.00
45050;BME280;61798;48.048;-1.928;2023-08-24T05:35:10;100431.13;;;18.53;100.00
45050;BME280;61798;48.048;-1.928;2023-08-24T05:37:17;100419.19;;;18.54;100.00
45050;BME280;61798;48.048;-1.928;2023-08-24T05:39:22;100433.38;;;18.62;100.00
45050;BME280;61798;48.048;-1.928;2023-08-24T05:41:33;100438.41;;;18.75;100.00
45050;BME280;61798;48.048;-1.928;2023-08-24T05:43:40;100434.25;;;18.67;100.00
45050;BME280;61798;48.048;-1.928;2023-08-24T05:45:50;100421.66;;;18.56;100.00
45050;BME280;61798;48.048;-1.928;2023-08-24T05:47:57;100423.59;;;18.60;100.00
45050;BME280;61798;48.048;-1.928;2023-08-24T05:50:04;100438.41;;;18.98;100.00
45050;BME280;61798;48.048;-1.928;2023-08-24T05:52:12;100454.97;;;18.74;100.00
45050;BME280;61798;48.048;-1.928;2023-08-24T05:54:18;100457.94;;;18.95;100.00
45050;BME280;61798;48.048;-1.928;2023-08-24T05:56:26;100477.88;;;19.06;100.00
45050;BME280;61798;48.048;-1.928;2023-08-24T05:58:32;100463.97;;;19.02;100.00
45050;BME280;61798;48.048;-1.928;2023-08-24T06:00:38;100491.28;;;18.90;100.00
45050;BME280;61798;48.048;-1.928;2023-08-24T06:02:44;100506.84;;;19.00;100.00
45050;BME280;61798;48.048;-1.928;2023-08-24T06:04:50;100499.00;;;19.03;100.00
45050;BME280;61798;48.048;-1.928;2023-08-24T06:06:56;100505.41;;;18.92;100.00
45050;BME280;61798;48.048;-1.928;2023-08-24T06:09:03;100509.19;;;18.91;100.00
45050;BME280;61798;48.048;-1.928;2023-08-24T06:11:12;100527.63;;;19.11;100.00
45050;BME280;61798;48.048;-1.928;2023-08-24T06:13:17;100501.72;;;19.03;100.00
45050;BME280;61798;48.048;-1.928;2023-08-24T06:15:23;100502.56;;;19.04;100.00
45050;BME280;61798;48.048;-1.928;2023-08-24T06:17:32;100522.84;;;19.19;100.00
45050;BME280;61798;48.048;-1.928;2023-08-24T06:19:37;100517.06;;;19.15;100.00
45050;BME280;61798;48.048;-1.928;2023-08-24T06:21:43;100521.94;;;19.13;100.00
45050;BME280;61798;48.048;-1.928;2023-08-24T06:23:49;100510.06;;;18.97;100.00
45050;BME280;61798;48.048;-1.928;2023-08-24T06:25:55;100521.50;;;19.21;100.00
45050;BME280;61798;48.048;-1.928;2023-08-24T06:28:01;100507.06;;;18.93;100.00
45050;BME280;61798;48.048;-1.928;2023-08-24T06:30:10;100536.69;;;18.95;100.00
45050;BME280;61798;48.048;-1.928;2023-08-24T06:32:16;100551.88;;;19.18;100.00
45050;BME280;61798;48.048;-1.928;2023-08-24T06:34:22;100571.88;;;19.29;100.00
45050;BME280;61798;48.048;-1.928;2023-08-24T06:36:28;100580.94;;;19.40;100.00
45050;BME280;61798;48.048;-1.928;2023-08-24T06:38:35;100554.34;;;19.20;100.00
45050;BME280;61798;48.048;-1.928;2023-08-24T06:40:41;100568.31;;;19.29;100.00
45050;BME280;61798;48.048;-1.928;2023-08-24T06:42:47;100558.94;;;19.19;100.00
45050;BME280;61798;48.048;-1.928;2023-08-24T06:44:53;100544.44;;;19.08;100.00
45050;BME280;61798;48.048;-1.928;2023-08-24T06:46:59;100564.31;;;18.91;100.00
45050;BME280;61798;48.048;-1.928;2023-08-24T06:49:06;100570.50;;;19.27;100.00
45050;BME280;61798;48.048;-1.928;2023-08-24T06:51:12;100565.06;;;19.27;100.00
45050;BME280;61798;48.048;-1.928;2023-08-24T06:53:21;100610.00;;;19.40;100.00
45050;BME280;61798;48.048;-1.928;2023-08-24T06:55:28;100553.91;;;19.06;100.00
45050;BME280;61798;48.048;-1.928;2023-08-24T06:57:34;100552.72;;;19.19;100.00
45050;BME280;61798;48.048;-1.928;2023-08-24T06:59:40;100582.59;;;19.41;100.00
45050;BME280;61798;48.048;-1.928;2023-08-24T07:01:46;100566.53;;;19.17;100.00
45050;BME280;61798;48.048;-1.928;2023-08-24T07:03:53;100556.22;;;19.19;100.00
45050;BME280;61798;48.048;-1.928;2023-08-24T07:05:59;100560.16;;;19.06;100.00
45050;BME280;61798;48.048;-1.928;2023-08-24T07:08:05;100554.16;;;18.81;100.00
45050;BME280;61798;48.048;-1.928;2023-08-24T07:10:11;100544.53;;;18.74;100.00
45050;BME280;61798;48.048;-1.928;2023-08-24T07:12:17;100571.16;;;19.17;100.00
45050;BME280;61798;48.048;-1.928;2023-08-24T07:14:31;100572.22;;;19.16;100.00
45050;BME280;61798;48.048;-1.928;2023-08-24T07:16:37;100532.00;;;18.90;100.00
45050;BME280;61798;48.048;-1.928;2023-08-24T07:18:43;100541.72;;;19.31;100.00
45050;BME280;61798;48.048;-1.928;2023-08-24T07:20:49;100531.06;;;19.24;100.00
45050;BME280;61798;48.048;-1.928;2023-08-24T07:22:56;100530.09;;;19.13;100.00
45050;BME280;61798;48.048;-1.928;2023-08-24T07:25:04;100526.47;;;19.07;100.00
45050;BME280;61798;48.048;-1.928;2023-08-24T07:27:16;100517.97;;;19.21;100.00
45050;BME280;61798;48.048;-1.928;2023-08-24T07:29:41;100474.25;;;19.00;100.00
45050;BME280;61798;48.048;-1.928;2023-08-24T07:32:01;100505.06;;;19.11;100.00
45050;BME280;61798;48.048;-1.928;2023-08-24T07:34:14;100522.56;;;19.20;100.00
45050;BME280;61798;48.048;-1.928;2023-08-24T07:36:25;100498.78;;;19.05;100.00
45050;BME280;61798;48.048;-1.928;2023-08-24T07:38:56;100482.38;;;18.95;100.00
45050;BME280;61798;48.048;-1.928;2023-08-24T07:41:17;100477.88;;;19.06;100.00
45050;BME280;61798;48.048;-1.928;2023-08-24T07:43:43;100446.81;;;18.96;100.00
45050;BME280;61798;48.048;-1.928;2023-08-24T07:45:48;100463.03;;;19.13;100.00
45050;BME280;61798;48.048;-1.928;2023-08-24T07:47:57;100483.28;;;19.28;100.00
45050;BME280;61798;48.048;-1.928;2023-08-24T07:50:07;100497.78;;;19.39;100.00
45050;BME280;61798;48.048;-1.928;2023-08-24T07:52:14;100487.50;;;19.41;100.00
45050;BME280;61798;48.048;-1.928;2023-08-24T07:54:20;100491.66;;;19.49;100.00
45050;BME280;61798;48.048;-1.928;2023-08-24T07:56:26;100474.91;;;19.63;100.00
45050;BME280;61798;48.048;-1.928;2023-08-24T07:58:32;100451.00;;;19.65;100.00
45050;BME280;61798;48.048;-1.928;2023-08-24T08:00:38;100465.69;;;19.64;100.00
45050;BME280;61798;48.048;-1.928;2023-08-24T08:02:44;100435.13;;;19.51;100.00
45050;BME280;61798;48.048;-1.928;2023-08-24T08:04:50;100471.00;;;19.81;100.00
45050;BME280;61798;48.048;-1.928;2023-08-24T08:06:57;100478.91;;;19.88;100.00
45050;BME280;61798;48.048;-1.928;2023-08-24T08:09:03;100476.25;;;19.98;100.00
45050;BME280;61798;48.048;-1.928;2023-08-24T08:11:08;100445.25;;;19.94;100.00
45050;BME280;61798;48.048;-1.928;2023-08-24T08:13:14;100451.78;;;19.93;100.00
45050;BME280;61798;48.048;-1.928;2023-08-24T08:15:20;100437.41;;;19.98;100.00
45050;BME280;61798;48.048;-1.928;2023-08-24T08:17:27;100424.81;;;19.92;100.00
45050;BME280;61798;48.048;-1.928;2023-08-24T08:19:36;100441.47;;;20.01;100.00
45050;BME280;61798;48.048;-1.928;2023-08-24T08:21:43;100450.81;;;20.15;100.00
45050;BME280;61798;48.048;-1.928;2023-08-24T08:23:49;100444.94;;;20.29;100.00
45050;BME280;61798;48.048;-1.928;2023-08-24T08:25:55;100437.59;;;20.29;100.00
45050;BME280;61798;48.048;-1.928;2023-08-24T08:28:01;100431.66;;;20.38;100.00
45050;BME280;61798;48.048;-1.928;2023-08-24T08:30:08;100426.19;;;20.33;100.00
45050;BME280;61798;48.048;-1.928;2023-08-24T08:32:14;100439.81;;;20.43;100.00
45050;BME280;61798;48.048;-1.928;2023-08-24T08:34:19;100428.63;;;20.29;100.00
45050;BME280;61798;48.048;-1.928;2023-08-24T08:36:25;100438.50;;;20.46;100.00
45050;BME280;61798;48.048;-1.928;2023-08-24T08:38:31;100431.44;;;20.55;100.00
45050;BME280;61798;48.048;-1.928;2023-08-24T08:40:38;100416.72;;;20.51;100.00
45050;BME280;61798;48.048;-1.928;2023-08-24T08:42:44;100410.75;;;20.54;100.00
45050;BME280;61798;48.048;-1.928;2023-08-24T08:44:51;100427.16;;;20.70;100.00
45050;BME280;61798;48.048;-1.928;2023-08-24T08:47:00;100431.78;;;20.75;100.00
45050;BME280;61798;48.048;-1.928;2023-08-24T08:49:07;100455.50;;;20.79;100.00
45050;BME280;61798;48.048;-1.928;2023-08-24T08:51:14;100463.72;;;20.90;100.00
45050;BME280;61798;48.048;-1.928;2023-08-24T08:53:22;100454.72;;;20.89;100.00
45050;BME280;61798;48.048;-1.928;2023-08-24T08:55:28;100460.44;;;20.93;100.00
45050;BME280;61798;48.048;-1.928;2023-08-24T08:57:36;100450.38;;;20.94;100.00
45050;BME280;61798;48.048;-1.928;2023-08-24T08:59:42;100441.34;;;20.88;100.00
45050;BME280;61798;48.048;-1.928;2023-08-24T09:01:48;100480.06;;;21.00;100.00
45050;BME280;61798;48.048;-1.928;2023-08-24T09:03:57;100463.72;;;21.00;100.00
45050;BME280;61798;48.048;-1.928;2023-08-24T09:06:05;100464.00;;;20.94;100.00
45050;BME280;61798;48.048;-1.928;2023-08-24T09:08:10;100471.91;;;21.00;100.00
45050;BME280;61798;48.048;-1.928;2023-08-24T09:10:16;100449.78;;;20.86;100.00
45050;BME280;61798;48.048;-1.928;2023-08-24T09:12:22;100465.34;;;20.96;100.00
45050;BME280;61798;48.048;-1.928;2023-08-24T09:14:28;100464.50;;;20.90;100.00
45050;BME280;61798;48.048;-1.928;2023-08-24T09:16:35;100474.06;;;20.93;100.00
45050;BME280;61798;48.048;-1.928;2023-08-24T09:18:43;100463.44;;;20.97;100.00
45050;BME280;61798;48.048;-1.928;2023-08-24T09:20:51;100490.16;;;21.05;100.00
45050;BME280;61798;48.048;-1.928;2023-08-24T09:22:58;100471.91;;;21.00;100.00
45050;BME280;61798;48.048;-1.928;2023-08-24T09:25:04;100487.69;;;20.93;100.00
45050;BME280;61798;48.048;-1.928;2023-08-24T09:27:17;100487.94;;;20.91;100.00
45050;BME280;61798;48.048;-1.928;2023-08-24T09:29:23;100481.66;;;20.86;100.00
45050;BME280;61798;48.048;-1.928;2023-08-24T09:31:36;100473.50;;;20.91;100.00
45050;BME280;61798;48.048;-1.928;2023-08-24T09:33:43;100464.00;;;20.94;100.00
45050;BME280;61798;48.048;-1.928;2023-08-24T09:35:54;100438.09;;;20.86;100.00
45050;BME280;61798;48.048;-1.928;2023-08-24T09:38:17;100420.16;;;21.00;100.00
45050;BME280;61798;48.048;-1.928;2023-08-24T09:40:25;100404.88;;;20.99;100.00
45050;BME280;61798;48.048;-1.928;2023-08-24T09:42:41;100355.56;;;20.90;100.00
45050;BME280;61798;48.048;-1.928;2023-08-24T09:44:47;100315.25;;;20.87;100.00
45050;BME280;61798;48.048;-1.928;2023-08-24T09:46:53;100271.44;;;20.73;100.00
45050;BME280;61798;48.048;-1.928;2023-08-24T09:48:59;100326.97;;;20.82;100.00
45050;BME280;61798;48.048;-1.928;2023-08-24T09:51:08;100372.44;;;20.87;100.00
45050;BME280;61798;48.048;-1.928;2023-08-24T09:53:22;100370.28;;;20.89;100.00
45050;BME280;61798;48.048;-1.928;2023-08-24T09:55:29;100380.97;;;21.12;100.00
45050;BME280;61798;48.048;-1.928;2023-08-24T09:57:39;100378.50;;;21.16;100.00
45050;BME280;61798;48.048;-1.928;2023-08-24T09:59:46;100364.34;;;21.08;100.00
45050;BME280;61798;48.048;-1.928;2023-08-24T10:01:54;100376.06;;;21.19;100.00
45050;BME280;61798;48.048;-1.928;2023-08-24T10:04:05;100301.97;;;21.17;100.00
45050;BME280;61798;48.048;-1.928;2023-08-24T10:06:11;100284.25;;;21.09;100.00
45050;BME280;61798;48.048;-1.928;2023-08-24T10:08:21;100294.31;;;21.35;100.00
45050;BME280;61798;48.048;-1.928;2023-08-24T10:10:29;100306.28;;;21.39;100.00
45050;BME280;61798;48.048;-1.928;2023-08-24T10:12:40;100290.75;;;21.34;100.00
45050;BME280;61798;48.048;-1.928;2023-08-24T10:17:04;100310.38;;;21.47;100.00
45050;BME280;61798;48.048;-1.928;2023-08-24T10:19:10;100315.00;;;21.52;100.00
45050;BME280;61798;48.048;-1.928;2023-08-24T10:21:18;100304.63;;;21.54;100.00
45050;BME280;61798;48.048;-1.928;2023-08-24T10:23:25;100324.78;;;21.63;100.00
45050;BME280;61798;48.048;-1.928;2023-08-24T10:25:33;100298.03;;;21.71;100.00
45050;BME280;61798;48.048;-1.928;2023-08-24T10:27:40;100277.88;;;21.72;100.00
45050;BME280;61798;48.048;-1.928;2023-08-24T10:29:49;100283.31;;;21.72;100.00
45050;BME280;61798;48.048;-1.928;2023-08-24T10:31:56;100274.25;;;21.87;100.00
45050;BME280;61798;48.048;-1.928;2023-08-24T10:34:04;100263.41;;;21.71;100.00
45050;BME280;61798;48.048;-1.928;2023-08-24T10:36:12;100291.44;;;21.87;100.00
45050;BME280;61798;48.048;-1.928;2023-08-24T10:38:24;100295.25;;;21.92;100.00
45050;BME280;61798;48.048;-1.928;2023-08-24T10:40:35;100294.16;;;21.98;100.00
45050;BME280;61798;48.048;-1.928;2023-08-24T10:42:45;100278.34;;;22.00;100.00
45050;BME280;61798;48.048;-1.928;2023-08-24T10:44:52;100261.06;;;22.15;100.00
45050;BME280;61798;48.048;-1.928;2023-08-24T10:49:19;100256.91;;;22.28;100.00
45050;BME280;61798;48.048;-1.928;2023-08-24T10:51:26;100244.09;;;22.24;100.00
45050;BME280;61798;48.048;-1.928;2023-08-24T10:53:38;100257.56;;;22.50;100.00
45050;BME280;61798;48.048;-1.928;2023-08-24T10:55:45;100246.94;;;22.48;100.00
45050;BME280;61798;48.048;-1.928;2023-08-24T10:58:00;100226.59;;;22.65;100.00
45050;BME280;61798;48.048;-1.928;2023-08-24T11:00:11;100226.69;;;22.90;100.00
45050;BME280;61798;48.048;-1.928;2023-08-24T11:02:19;100226.38;;;22.97;100.00
45050;BME280;61798;48.048;-1.928;2023-08-24T11:04:25;100218.06;;;23.07;100.00